Time;durP1;ratioP1;P1;durP2;ratioP2;P2;SDS_P1;SDS_P2;PMS_P1;PMS_P2;Temp;Humidity;BMP_temperature;BMP_pressure;BME280_temperature;BME280_humidity;BME280_pressure;Samples;Min_cycle;Max_cycle;Signal;HPM_P1;HPM_P2
2021/05/14 00:02:09;;;;;;;17.30;15.50;;;13.00;99.90;;;;;;4981419;28;20258;-80
2021/05/14 00:04:34;;;;;;;17.67;15.47;;;13.00;99.90;;;;;;4998661;28;20654;-79
2021/05/14 00:07:00;;;;;;;16.87;14.93;;;13.00;99.90;;;;;;4982262;28;20184;-81
2021/05/14 00:09:25;;;;;;;17.63;15.70;;;13.10;99.90;;;;;;4982209;28;20191;-80
2021/05/14 00:11:51;;;;;;;19.00;16.97;;;13.00;99.90;;;;;;4983138;28;20216;-81
2021/05/14 00:14:18;;;;;;;18.53;16.60;;;13.10;99.90;;;;;;4982402;28;20592;-81
2021/05/14 00:16:44;;;;;;;19.20;17.23;;;13.00;99.90;;;;;;4982190;28;20179;-82
2021/05/14 00:19:11;;;;;;;17.83;16.17;;;13.00;99.90;;;;;;4998160;28;20187;-83
2021/05/14 00:21:37;;;;;;;18.40;16.50;;;13.00;99.90;;;;;;5013542;28;20195;-78
2021/05/14 00:24:03;;;;;;;18.90;16.87;;;12.90;99.90;;;;;;4981081;28;20179;-81
2021/05/14 00:26:30;;;;;;;18.47;16.50;;;13.00;99.90;;;;;;4981344;28;20746;-79
2021/05/14 00:28:56;;;;;;;17.90;16.10;;;12.90;99.90;;;;;;4981988;28;20541;-81
2021/05/14 00:31:23;;;;;;;18.20;16.27;;;12.90;99.90;;;;;;4997141;28;20218;-80
2021/05/14 00:33:49;;;;;;;18.37;16.43;;;12.80;99.90;;;;;;4981752;28;20318;-79
2021/05/14 00:36:15;;;;;;;19.00;17.07;;;12.70;99.90;;;;;;4981176;28;20646;-79
2021/05/14 00:38:41;;;;;;;17.93;16.07;;;12.80;99.90;;;;;;4980738;28;20183;-80
2021/05/14 00:41:08;;;;;;;18.23;16.33;;;12.80;99.90;;;;;;5013343;28;20171;-80
2021/05/14 00:43:34;;;;;;;18.83;16.83;;;12.80;99.90;;;;;;4997022;28;20203;-84
2021/05/14 00:46:03;;;;;;;17.73;15.93;;;12.80;99.90;;;;;;4997280;28;20186;-79
2021/05/14 00:48:29;;;;;;;16.57;14.97;;;12.80;99.90;;;;;;4982292;28;20179;-81
2021/05/14 00:50:55;;;;;;;17.47;15.67;;;12.80;99.90;;;;;;4981049;28;20202;-80
2021/05/14 00:53:20;;;;;;;17.73;15.93;;;12.80;99.90;;;;;;4980576;28;20690;-80
2021/05/14 00:55:46;;;;;;;18.03;16.23;;;12.70;99.90;;;;;;4981309;28;20176;-83
2021/05/14 00:58:11;;;;;;;18.33;16.27;;;12.70;99.90;;;;;;4981222;28;20633;-80
2021/05/14 01:00:37;;;;;;;17.37;14.17;;;12.70;99.90;;;;;;5013391;28;20168;-79
2021/05/14 01:03:02;;;;;;;17.17;15.37;;;12.70;99.90;;;;;;4980518;28;20211;-80
2021/05/14 01:05:30;;;;;;;16.57;14.93;;;12.70;99.90;;;;;;4996671;28;20266;-80
2021/05/14 01:07:58;;;;;;;15.70;13.93;;;12.70;99.90;;;;;;4997738;28;20256;-79
2021/05/14 01:10:24;;;;;;;15.30;12.60;;;12.70;99.90;;;;;;4997298;28;20175;-83
2021/05/14 01:12:50;;;;;;;13.80;12.23;;;12.70;99.90;;;;;;4980126;28;20214;-80
2021/05/14 01:15:16;;;;;;;13.87;12.37;;;12.60;99.90;;;;;;4980824;28;20203;-79
2021/05/14 01:17:41;;;;;;;13.50;12.20;;;12.60;99.90;;;;;;4996757;28;20230;-79
2021/05/14 01:20:07;;;;;;;13.37;11.97;;;12.60;99.90;;;;;;5013407;28;20266;-80
2021/05/14 01:22:33;;;;;;;12.97;11.50;;;12.50;99.90;;;;;;4980527;28;20199;-81
2021/05/14 01:24:58;;;;;;;13.43;11.10;;;12.40;99.90;;;;;;4980505;28;20278;-80
2021/05/14 01:27:24;;;;;;;12.97;9.83;;;12.40;99.90;;;;;;5014070;28;20186;-80
2021/05/14 01:29:50;;;;;;;11.03;9.80;;;12.40;99.90;;;;;;5013332;28;20236;-80
2021/05/14 01:32:15;;;;;;;12.77;9.83;;;12.40;99.90;;;;;;4998430;28;20204;-80
2021/05/14 01:34:42;;;;;;;10.97;9.80;;;12.40;99.90;;;;;;5029444;28;20211;-81
2021/05/14 01:37:08;;;;;;;10.83;9.30;;;12.30;99.90;;;;;;5012732;28;20545;-81
2021/05/14 01:39:34;;;;;;;11.30;10.10;;;12.30;99.90;;;;;;5012583;28;20696;-82
2021/05/14 01:42:01;;;;;;;10.33;8.83;;;12.30;99.90;;;;;;4996637;28;20611;-80
2021/05/14 01:44:30;;;;;;;11.37;10.20;;;12.20;99.90;;;;;;4996286;28;20222;-82
2021/05/14 01:46:56;;;;;;;13.03;9.87;;;12.10;99.90;;;;;;5013128;28;20245;-79
2021/05/14 01:49:21;;;;;;;10.83;9.73;;;12.10;99.90;;;;;;4996633;28;20658;-80
2021/05/14 01:51:47;;;;;;;10.07;9.03;;;12.10;99.90;;;;;;4998715;28;20203;-82
2021/05/14 01:54:13;;;;;;;11.60;9.63;;;12.10;99.90;;;;;;5000256;28;20214;-79
2021/05/14 01:56:43;;;;;;;11.10;9.87;;;12.10;99.90;;;;;;5000091;28;20175;-79
2021/05/14 01:59:08;;;;;;;10.20;8.73;;;12.00;99.90;;;;;;5000651;28;20190;-79
2021/05/14 02:01:35;;;;;;;10.47;9.43;;;12.00;99.90;;;;;;4999301;28;20196;-80
2021/05/14 02:04:00;;;;;;;11.53;8.50;;;12.00;99.90;;;;;;4999593;28;20187;-81
2021/05/14 02:06:26;;;;;;;9.67;8.43;;;11.90;99.90;;;;;;4999864;28;20186;-80
2021/05/14 02:08:52;;;;;;;11.77;9.20;;;11.90;99.90;;;;;;4999868;28;20218;-79
2021/05/14 02:11:17;;;;;;;12.70;8.77;;;11.90;99.90;;;;;;4999512;28;20188;-79
2021/05/14 02:13:44;;;;;;;9.77;8.77;;;11.90;99.90;;;;;;5016897;28;20499;-80
2021/05/14 02:16:13;;;;;;;10.53;9.27;;;11.90;99.90;;;;;;5033452;28;20652;-81
2021/05/14 02:18:40;;;;;;;9.83;8.83;;;11.80;99.90;;;;;;5016468;28;20206;-82
2021/05/14 02:21:06;;;;;;;11.53;8.60;;;11.90;99.90;;;;;;5004109;28;20176;-82
2021/05/14 02:23:31;;;;;;;9.63;8.20;;;11.90;99.90;;;;;;5007786;28;20650;-82
2021/05/14 02:25:57;;;;;;;10.87;7.87;;;11.80;99.90;;;;;;5022957;28;20194;-82
2021/05/14 02:28:23;;;;;;;11.77;9.03;;;11.80;99.90;;;;;;5007305;28;20613;-81
2021/05/14 02:30:48;;;;;;;10.87;8.60;;;11.70;99.90;;;;;;5008238;28;20184;-80
2021/05/14 02:33:14;;;;;;;11.67;8.60;;;11.70;99.90;;;;;;5006999;28;20223;-81
2021/05/14 02:35:40;;;;;;;10.13;8.90;;;11.70;99.90;;;;;;5023745;28;20175;-81
2021/05/14 02:38:06;;;;;;;10.90;8.87;;;11.70;99.90;;;;;;5006605;28;20171;-81
2021/05/14 02:40:33;;;;;;;13.40;9.00;;;11.60;99.90;;;;;;5006780;28;20551;-81
2021/05/14 02:42:59;;;;;;;12.50;9.67;;;11.60;99.90;;;;;;5022160;28;20203;-80
2021/05/14 02:45:24;;;;;;;12.70;8.60;;;11.50;99.90;;;;;;5002998;28;20187;-80
2021/05/14 02:47:52;;;;;;;11.77;9.33;;;11.50;99.90;;;;;;5015767;28;20187;-79
2021/05/14 02:50:20;;;;;;;11.97;9.33;;;11.50;99.90;;;;;;5015575;28;20175;-79
2021/05/14 02:52:47;;;;;;;10.93;9.27;;;11.50;99.90;;;;;;5030891;28;20192;-80
2021/05/14 02:55:14;;;;;;;11.53;8.90;;;11.40;99.90;;;;;;5015293;28;20207;-80
2021/05/14 02:57:43;;;;;;;10.30;9.10;;;11.30;99.90;;;;;;5017279;28;20658;-80
2021/05/14 03:00:09;;;;;;;13.83;9.33;;;11.30;99.90;;;;;;5017071;28;20253;-80
2021/05/14 03:02:34;;;;;;;12.17;9.40;;;11.30;99.90;;;;;;5033263;28;20195;-80
2021/05/14 03:05:03;;;;;;;12.53;9.83;;;11.20;99.90;;;;;;5016198;28;20237;-80
2021/05/14 03:07:30;;;;;;;12.17;9.73;;;11.30;99.90;;;;;;5000708;28;20202;-81
2021/05/14 03:09:57;;;;;;;14.00;9.90;;;11.30;99.90;;;;;;5000085;28;20179;-80
2021/05/14 03:12:27;;;;;;;13.63;10.43;;;11.30;99.90;;;;;;5000614;28;20602;-81
2021/05/14 03:14:54;;;;;;;14.40;10.67;;;11.20;99.90;;;;;;5017669;28;20231;-81
2021/05/14 03:17:20;;;;;;;14.33;10.73;;;11.20;99.90;;;;;;5000945;28;20180;-80
2021/05/14 03:19:46;;;;;;;13.10;10.50;;;11.20;99.90;;;;;;5017080;28;20329;-79
2021/05/14 03:22:12;;;;;;;14.20;10.80;;;11.10;99.90;;;;;;5016839;28;20221;-79
2021/05/14 03:24:40;;;;;;;12.57;10.00;;;11.10;99.90;;;;;;5016544;28;20670;-80
2021/05/14 03:27:06;;;;;;;14.80;10.80;;;11.10;99.90;;;;;;5017361;28;20215;-80
2021/05/14 03:29:31;;;;;;;13.00;10.40;;;11.00;99.90;;;;;;5019706;28;20715;-79
2021/05/14 03:31:57;;;;;;;13.30;10.93;;;11.00;99.90;;;;;;5037274;28;20211;-81
2021/05/14 03:34:23;;;;;;;14.47;10.43;;;11.00;99.90;;;;;;5022151;28;20294;-80
2021/05/14 03:36:49;;;;;;;14.57;11.10;;;11.00;99.90;;;;;;5021907;28;20796;-80
2021/05/14 03:39:15;;;;;;;13.03;10.77;;;11.00;99.90;;;;;;5021481;28;20286;-81
2021/05/14 03:44:13;;;;;;;13.77;11.10;;;10.90;99.90;;;;;;5021041;28;20180;-80
2021/05/14 03:46:40;;;;;;;14.63;10.43;;;10.90;99.90;;;;;;5020394;28;20207;-81
2021/05/14 03:49:07;;;;;;;13.13;10.73;;;10.90;99.90;;;;;;5021014;28;20197;-81
2021/05/14 03:51:39;;;;;;;13.90;10.60;;;10.90;99.90;;;;;;5019761;28;20221;-80
2021/05/14 03:54:05;;;;;;;17.37;11.13;;;11.00;99.90;;;;;;5020014;28;20221;-80
2021/05/14 03:56:30;;;;;;;14.73;10.23;;;10.90;99.90;;;;;;5021345;28;20207;-80
2021/05/14 03:58:57;;;;;;;14.50;10.77;;;10.90;99.90;;;;;;5020327;28;20184;-79
2021/05/14 04:01:23;;;;;;;17.23;11.27;;;10.90;99.90;;;;;;5020252;28;20186;-81
2021/05/14 04:03:50;;;;;;;17.07;11.73;;;10.90;99.90;;;;;;5021202;28;20187;-78
2021/05/14 04:06:16;;;;;;;13.10;10.80;;;10.90;99.90;;;;;;5015591;28;20192;-79
2021/05/14 04:08:42;;;;;;;15.17;11.10;;;10.90;99.90;;;;;;4999568;28;20708;-81
2021/05/14 04:16:36;;;;;;;15.90;10.97;;;10.90;99.90;;;;;;4997770;28;20190;-79
2021/05/14 04:19:02;;;;;;;15.77;11.03;;;10.90;99.90;;;;;;4982174;28;20184;-80
2021/05/14 04:21:28;;;;;;;15.63;11.33;;;10.90;99.90;;;;;;4981125;28;20582;-79
2021/05/14 04:23:53;;;;;;;14.63;11.33;;;10.90;99.90;;;;;;4981878;28;20190;-80
2021/05/14 04:26:19;;;;;;;16.40;11.47;;;10.80;99.90;;;;;;4981867;28;20653;-78
2021/05/14 04:28:46;;;;;;;14.67;10.77;;;10.80;99.90;;;;;;4983243;28;20654;-80
2021/05/14 04:31:13;;;;;;;14.90;10.83;;;10.80;99.90;;;;;;4982577;28;20290;-78
2021/05/14 04:33:39;;;;;;;16.13;11.60;;;10.70;99.90;;;;;;4984085;28;20208;-79
2021/05/14 04:36:07;;;;;;;14.47;11.97;;;10.70;99.90;;;;;;4987812;28;20271;-79
2021/05/14 04:38:34;;;;;;;15.80;11.30;;;10.80;99.90;;;;;;4993679;28;20197;-80
2021/05/14 04:40:59;;;;;;;14.40;11.13;;;10.90;99.90;;;;;;5033566;28;20594;-79
2021/05/14 04:43:25;;;;;;;16.57;12.10;;;10.90;99.90;;;;;;4990497;28;20221;-79
2021/05/14 04:45:50;;;;;;;16.47;12.60;;;10.90;99.90;;;;;;5016236;28;20182;-79
2021/05/14 04:48:17;;;;;;;15.77;11.53;;;10.90;99.90;;;;;;5016709;28;20172;-80
2021/05/14 04:50:45;;;;;;;15.93;11.40;;;10.90;99.90;;;;;;5016706;28;20222;-79
2021/05/14 04:53:13;;;;;;;13.90;10.57;;;10.90;99.90;;;;;;5001999;28;20270;-79
2021/05/14 04:55:38;;;;;;;18.07;11.00;;;10.90;99.90;;;;;;5019308;28;20175;-79
2021/05/14 04:58:08;;;;;;;14.87;11.10;;;11.00;99.90;;;;;;5021836;28;20181;-78
2021/05/14 05:00:35;;;;;;;14.07;10.67;;;11.10;99.90;;;;;;5014257;28;20187;-80
2021/05/14 05:03:00;;;;;;;14.90;10.50;;;11.10;99.90;;;;;;4983054;28;20199;-80
2021/05/14 05:05:26;;;;;;;14.27;11.13;;;11.10;99.90;;;;;;4984276;28;20231;-80
2021/05/14 05:07:51;;;;;;;14.60;11.20;;;11.10;99.90;;;;;;4984263;28;20271;-79
2021/05/14 05:10:20;;;;;;;14.40;10.83;;;11.10;99.90;;;;;;4984344;28;20189;-80
2021/05/14 05:12:46;;;;;;;14.10;10.77;;;11.20;99.90;;;;;;4984041;28;20576;-80
2021/05/14 05:15:12;;;;;;;14.60;10.67;;;11.20;99.90;;;;;;4983325;28;20220;-79
2021/05/14 05:17:38;;;;;;;16.83;11.83;;;11.20;99.90;;;;;;4984109;28;20175;-78
2021/05/14 05:20:05;;;;;;;14.57;10.50;;;11.30;99.90;;;;;;4986775;28;20256;-78
2021/05/14 05:22:31;;;;;;;13.73;9.77;;;11.30;99.90;;;;;;4985351;28;20691;-79
2021/05/14 05:24:56;;;;;;;17.13;10.40;;;11.30;99.90;;;;;;4980999;28;20222;-79
2021/05/14 05:27:22;;;;;;;14.97;9.30;;;11.20;99.90;;;;;;4984339;28;20226;-80
2021/05/14 05:29:48;;;;;;;15.23;10.80;;;11.10;99.90;;;;;;4984180;28;20188;-78
2021/05/14 05:32:14;;;;;;;13.90;9.83;;;11.10;99.90;;;;;;4984527;28;20211;-79
2021/05/14 05:34:41;;;;;;;13.87;9.80;;;11.10;99.90;;;;;;4984599;28;20223;-79
2021/05/14 05:37:07;;;;;;;16.43;10.77;;;11.00;99.90;;;;;;4984283;28;20782;-78
2021/05/14 05:39:33;;;;;;;12.40;9.77;;;11.00;99.90;;;;;;4968249;28;20211;-80
2021/05/14 05:41:59;;;;;;;14.77;9.73;;;10.90;99.90;;;;;;4983623;28;20204;-79
2021/05/14 05:44:25;;;;;;;12.60;8.67;;;10.90;99.90;;;;;;5005459;28;20712;-79
2021/05/14 05:46:52;;;;;;;12.33;8.10;;;10.90;99.90;;;;;;5006231;28;20234;-79
2021/05/14 05:49:17;;;;;;;13.30;9.03;;;11.00;99.90;;;;;;4989776;28;20183;-79
2021/05/14 05:51:43;;;;;;;14.20;9.10;;;11.00;99.90;;;;;;5023094;28;20245;-78
2021/05/14 05:54:09;;;;;;;11.77;7.90;;;10.90;99.90;;;;;;5007124;28;20237;-79
2021/05/14 05:56:34;;;;;;;14.20;8.70;;;10.90;99.90;;;;;;5007353;28;20180;-79
2021/05/14 05:59:00;;;;;;;10.90;7.23;;;11.00;99.90;;;;;;5007163;28;20280;-79
2021/05/14 06:01:25;;;;;;;14.67;8.80;;;11.00;99.90;;;;;;5008167;28;20186;-78
2021/05/14 06:03:51;;;;;;;11.77;8.10;;;11.00;99.90;;;;;;5006225;28;20553;-78
2021/05/14 06:06:17;;;;;;;11.30;7.83;;;11.00;99.90;;;;;;5007563;28;20192;-78
2021/05/14 06:08:44;;;;;;;12.97;7.73;;;11.00;99.90;;;;;;5006836;28;20257;-79
2021/05/14 06:11:11;;;;;;;13.70;8.37;;;11.00;99.90;;;;;;5007692;28;20187;-78
2021/05/14 06:13:37;;;;;;;13.43;8.27;;;11.00;99.90;;;;;;5006922;28;20621;-78
2021/05/14 06:16:04;;;;;;;13.53;8.50;;;11.00;99.90;;;;;;4997375;28;20172;-79
2021/05/14 06:18:36;;;;;;;14.03;8.23;;;11.00;99.90;;;;;;4997270;28;20556;-78
2021/05/14 06:21:01;;;;;;;13.97;8.70;;;11.10;99.90;;;;;;5000690;28;20189;-79
2021/05/14 06:23:27;;;;;;;13.00;8.33;;;11.10;99.90;;;;;;5018421;28;20574;-78
2021/05/14 06:25:53;;;;;;;12.00;7.67;;;11.10;99.90;;;;;;5014579;28;20198;-79
2021/05/14 06:28:20;;;;;;;12.73;7.63;;;11.10;99.90;;;;;;5013326;28;20183;-78
2021/05/14 06:30:46;;;;;;;13.63;7.93;;;11.10;99.90;;;;;;4993953;28;20668;-78
2021/05/14 06:33:11;;;;;;;11.97;8.00;;;11.20;99.90;;;;;;5006967;28;20198;-78
2021/05/14 06:35:39;;;;;;;13.63;8.03;;;11.20;99.90;;;;;;4997704;28;20187;-78
2021/05/14 06:38:05;;;;;;;13.87;7.80;;;11.10;99.90;;;;;;5014539;28;20176;-76
2021/05/14 06:40:30;;;;;;;11.87;7.50;;;11.10;99.90;;;;;;5011488;28;20176;-76
2021/05/14 06:42:56;;;;;;;13.27;7.73;;;11.10;99.90;;;;;;4994563;28;20218;-76
2021/05/14 06:45:21;;;;;;;13.03;7.47;;;11.10;99.90;;;;;;4994780;28;20183;-76
2021/05/14 06:47:47;;;;;;;13.23;7.93;;;11.10;99.90;;;;;;5011536;28;20182;-76
2021/05/14 06:50:12;;;;;;;14.23;8.63;;;11.10;99.90;;;;;;5012898;28;20174;-77
2021/05/14 06:52:38;;;;;;;12.30;7.70;;;11.10;99.90;;;;;;5016999;28;20211;-77
2021/05/14 06:55:07;;;;;;;12.60;8.40;;;11.10;99.90;;;;;;5017261;28;20261;-78
2021/05/14 06:57:32;;;;;;;14.33;8.77;;;11.10;99.90;;;;;;5001244;28;20242;-77
2021/05/14 06:59:58;;;;;;;12.03;7.80;;;11.20;99.90;;;;;;5016631;28;20208;-78
2021/05/14 07:02:23;;;;;;;14.33;8.23;;;11.20;99.90;;;;;;5001888;28;20198;-79
2021/05/14 07:04:49;;;;;;;13.33;7.93;;;11.30;99.90;;;;;;5002620;28;20250;-79
2021/05/14 07:07:14;;;;;;;12.90;8.17;;;11.30;99.90;;;;;;5001887;28;20185;-79
2021/05/14 07:09:41;;;;;;;14.80;8.87;;;11.20;99.90;;;;;;5017304;28;20190;-78
2021/05/14 07:12:09;;;;;;;10.93;7.30;;;11.20;99.90;;;;;;4999716;28;20210;-79
2021/05/14 07:14:36;;;;;;;12.07;7.70;;;11.30;99.90;;;;;;5001147;28;20214;-79
2021/05/14 07:17:04;;;;;;;15.80;9.80;;;11.40;99.90;;;;;;5000605;28;20230;-79
2021/05/14 07:19:29;;;;;;;15.60;8.80;;;11.40;99.90;;;;;;5018542;28;20650;-79
2021/05/14 07:21:55;;;;;;;13.23;8.60;;;11.50;99.90;;;;;;5002900;28;20686;-78
2021/05/14 07:24:21;;;;;;;13.53;8.93;;;11.50;99.90;;;;;;5002914;28;20183;-78
2021/05/14 07:26:47;;;;;;;13.33;9.33;;;11.50;99.90;;;;;;5002249;28;20206;-78
2021/05/14 07:29:12;;;;;;;15.53;9.10;;;11.60;99.90;;;;;;5003383;28;20328;-78
2021/05/14 07:31:40;;;;;;;13.40;9.27;;;11.60;99.90;;;;;;5005768;28;20206;-79
2021/05/14 07:34:08;;;;;;;13.50;8.60;;;11.70;99.90;;;;;;5024501;28;20215;-77
2021/05/14 07:36:33;;;;;;;13.20;9.00;;;11.60;99.90;;;;;;5005801;28;20582;-78
2021/05/14 07:38:59;;;;;;;16.87;10.07;;;11.70;99.90;;;;;;5021257;28;20195;-77
2021/05/14 07:41:25;;;;;;;16.03;9.23;;;11.70;99.90;;;;;;5015591;28;20257;-79
2021/05/14 07:43:51;;;;;;;16.23;10.10;;;11.70;99.90;;;;;;5021188;28;20183;-79
2021/05/14 07:46:17;;;;;;;15.30;10.20;;;11.80;99.90;;;;;;5018905;28;20209;-78
2021/05/14 07:48:43;;;;;;;15.30;9.33;;;11.80;99.90;;;;;;5000466;28;20193;-79
2021/05/14 07:51:11;;;;;;;16.30;10.07;;;11.80;99.90;;;;;;5001710;28;20213;-78
2021/05/14 07:53:38;;;;;;;16.33;10.00;;;11.80;99.90;;;;;;5001835;28;20744;-78
2021/05/14 07:56:06;;;;;;;14.80;9.20;;;11.80;99.90;;;;;;5003568;28;20183;-78
2021/05/14 07:58:33;;;;;;;15.40;10.23;;;11.90;99.90;;;;;;5005564;28;20180;-78
2021/05/14 08:00:58;;;;;;;18.00;9.50;;;12.00;99.90;;;;;;5032255;28;20568;-78
2021/05/14 08:03:24;;;;;;;17.23;10.70;;;12.10;99.90;;;;;;4997654;28;20207;-77
2021/05/14 08:05:51;;;;;;;16.87;10.17;;;12.20;99.90;;;;;;4998635;28;20176;-79
2021/05/14 08:08:23;;;;;;;17.37;10.10;;;12.20;99.90;;;;;;4999290;28;20270;-78
2021/05/14 08:10:55;;;;;;;16.53;10.53;;;12.30;99.90;;;;;;5016740;28;20277;-77
2021/05/14 08:13:24;;;;;;;17.50;10.80;;;12.40;99.90;;;;;;5000306;28;20204;-79
2021/05/14 08:15:53;;;;;;;18.90;11.10;;;12.50;99.90;;;;;;5001074;28;20183;-78
2021/05/14 08:18:19;;;;;;;19.87;11.23;;;12.50;99.90;;;;;;5001160;28;20190;-79
2021/05/14 08:20:45;;;;;;;18.03;10.80;;;12.60;99.90;;;;;;5000512;28;20536;-78
2021/05/14 08:23:11;;;;;;;18.30;11.10;;;12.70;99.90;;;;;;5001000;28;20226;-78
2021/05/14 08:25:37;;;;;;;15.87;9.57;;;12.90;99.90;;;;;;5017317;28;20172;-78
2021/05/14 08:28:03;;;;;;;16.27;10.63;;;13.10;99.90;;;;;;5000648;28;20187;-79
2021/05/14 08:30:29;;;;;;;16.70;10.67;;;13.20;99.90;;;;;;5000241;28;20271;-77
2021/05/14 08:32:55;;;;;;;16.97;10.10;;;13.30;99.90;;;;;;5000298;28;20281;-78
2021/05/14 08:35:20;;;;;;;16.93;10.10;;;13.40;99.90;;;;;;5000087;28;20215;-79
2021/05/14 08:37:47;;;;;;;17.33;10.23;;;13.50;99.90;;;;;;5001016;28;20175;-78
2021/05/14 08:40:16;;;;;;;17.00;9.83;;;13.60;99.90;;;;;;5000884;28;20624;-79
2021/05/14 08:42:44;;;;;;;15.40;9.53;;;13.50;99.90;;;;;;4998661;28;20636;-78
2021/05/14 08:45:12;;;;;;;15.13;9.20;;;13.60;99.90;;;;;;4999570;28;20179;-79
2021/05/14 08:47:40;;;;;;;13.90;9.33;;;13.70;99.90;;;;;;4965912;28;20184;-78
2021/05/14 08:50:08;;;;;;;16.23;9.97;;;13.70;99.90;;;;;;5000197;28;20188;-78
2021/05/14 08:52:35;;;;;;;14.13;9.07;;;13.80;99.90;;;;;;4996291;28;20717;-79
2021/05/14 08:55:02;;;;;;;14.97;9.13;;;13.90;99.90;;;;;;5000734;28;20805;-78
2021/05/14 08:57:28;;;;;;;12.90;8.67;;;13.80;99.90;;;;;;5000307;28;20186;-77
2021/05/14 08:59:54;;;;;;;14.53;8.87;;;13.90;99.90;;;;;;5000942;28;20175;-78
2021/05/14 09:02:19;;;;;;;14.30;8.10;;;14.00;99.90;;;;;;5008331;28;20294;-80
2021/05/14 09:04:47;;;;;;;14.27;8.53;;;14.20;99.90;;;;;;4992738;28;20580;-78
2021/05/14 09:07:18;;;;;;;13.13;8.43;;;14.40;99.90;;;;;;5006298;28;20183;-80
2021/05/14 09:10:23;;;;;;;11.13;7.50;;;14.70;99.90;;;;;;5009022;28;20180;-79
2021/05/14 09:12:51;;;;;;;13.63;8.03;;;14.80;99.90;;;;;;4937895;29;20258;-80
2021/05/14 09:15:44;;;;;;;12.73;7.97;;;14.90;99.90;;;;;;4935113;29;20201;-79
2021/05/14 09:18:19;;;;;;;13.83;8.40;;;15.00;99.90;;;;;;4988822;28;20195;-80
2021/05/14 09:20:52;;;;;;;11.50;7.90;;;15.30;99.90;;;;;;5005858;28;20182;-80
2021/05/14 09:23:20;;;;;;;11.57;7.63;;;15.60;99.90;;;;;;5005136;28;20202;-79
2021/05/14 09:25:56;;;;;;;10.67;7.17;;;15.80;99.90;;;;;;5020591;28;20222;-80
2021/05/14 09:28:26;;;;;;;9.73;7.00;;;15.80;99.90;;;;;;4989126;28;20266;-78
2021/05/14 09:31:03;;;;;;;13.10;7.63;;;15.80;99.90;;;;;;5021745;28;20218;-78
2021/05/14 09:33:31;;;;;;;11.10;7.70;;;15.80;99.90;;;;;;5020366;28;20206;-82
2021/05/14 09:36:00;;;;;;;11.10;7.20;;;15.90;99.90;;;;;;5018029;28;20255;-80
2021/05/14 09:38:26;;;;;;;11.50;7.33;;;15.90;99.90;;;;;;5015068;28;20223;-79
2021/05/14 09:40:53;;;;;;;12.17;7.87;;;16.00;99.90;;;;;;4995499;28;20323;-81
2021/05/14 09:43:19;;;;;;;10.43;6.60;;;16.30;99.90;;;;;;5000898;28;20222;-80
2021/05/14 09:45:45;;;;;;;11.27;7.10;;;16.60;99.90;;;;;;5006697;28;20179;-81
2021/05/14 09:48:29;;;;;;;11.40;7.53;;;16.70;99.90;;;;;;5005711;28;20179;-79
2021/05/14 09:50:58;;;;;;;10.43;6.67;;;16.90;99.90;;;;;;5010410;28;20265;-80
2021/05/14 09:53:26;;;;;;;9.87;7.13;;;17.00;99.90;;;;;;5005486;28;20222;-79
2021/05/14 09:55:59;;;;;;;9.27;6.10;;;17.00;99.90;;;;;;5005787;28;20182;-78
2021/05/14 09:58:27;;;;;;;9.13;5.90;;;17.30;99.90;;;;;;5019495;28;20722;-77
2021/05/14 10:00:54;;;;;;;9.53;6.23;;;17.30;99.90;;;;;;5002063;28;20189;-77
2021/05/14 10:03:23;;;;;;;8.70;6.00;;;17.40;99.90;;;;;;5001973;28;20272;-78
2021/05/14 10:05:52;;;;;;;11.40;7.10;;;17.30;99.90;;;;;;5004616;28;20179;-80
2021/05/14 10:08:20;;;;;;;9.27;6.07;;;17.20;99.90;;;;;;5005816;28;20171;-82
2021/05/14 10:10:48;;;;;;;9.30;5.93;;;17.30;99.90;;;;;;5006614;28;20298;-82
2021/05/14 10:13:14;;;;;;;8.30;5.63;;;17.30;99.90;;;;;;5007611;28;20196;-81
2021/05/14 10:15:41;;;;;;;9.27;6.10;;;17.00;99.90;;;;;;5021512;28;20175;-80
2021/05/14 10:18:15;;;;;;;9.67;6.90;;;16.90;99.90;;;;;;5002155;28;20183;-80
2021/05/14 10:20:41;;;;;;;8.20;5.97;;;16.80;99.90;;;;;;5018976;28;20228;-78
2021/05/14 10:23:06;;;;;;;9.37;6.30;;;16.70;99.90;;;;;;5001294;28;20196;-79
2021/05/14 10:25:39;;;;;;;9.47;6.30;;;16.50;99.90;;;;;;5003379;28;20191;-80
2021/05/14 10:28:24;;;;;;;10.93;5.90;;;16.30;99.90;;;;;;5021362;28;20206;-80
2021/05/14 10:31:14;;;;;;;10.30;6.93;;;16.20;99.90;;;;;;5006596;28;20179;-80
2021/05/14 10:33:44;;;;;;;11.00;6.20;;;15.90;99.90;;;;;;5013917;28;20278;-80
2021/05/14 10:36:24;;;;;;;11.33;6.83;;;16.00;99.90;;;;;;5004022;28;20180;-80
2021/05/14 10:39:10;;;;;;;7.90;5.67;;;16.10;99.90;;;;;;5023023;28;20182;-80
2021/05/14 10:44:42;;;;;;;8.23;4.77;;;16.70;99.90;;;;;;5073036;22;20226;-76
2021/05/14 10:47:41;;;;;;;9.30;5.43;;;17.00;99.90;;;;;;5053283;28;20193;-77
2021/05/14 10:50:15;;;;;;;8.10;5.47;;;17.20;99.90;;;;;;5053910;28;20259;-75
2021/05/14 10:53:18;;;;;;;10.07;5.60;;;17.50;99.90;;;;;;5033368;28;20281;-76
2021/05/14 10:55:44;;;;;;;9.00;6.10;;;17.70;99.90;;;;;;5048023;28;20194;-77
2021/05/14 10:58:40;;;;;;;6.90;4.70;;;17.70;99.90;;;;;;5036183;28;20699;-76
2021/05/14 11:01:06;;;;;;;7.83;5.67;;;17.80;99.90;;;;;;5053536;28;20171;-77
2021/05/14 11:03:32;;;;;;;8.90;6.10;;;17.70;99.90;;;;;;5052396;28;20628;-76
2021/05/14 11:06:17;;;;;;;7.93;5.50;;;17.60;99.90;;;;;;5035633;28;20186;-77
2021/05/14 11:08:45;;;;;;;7.53;5.57;;;17.40;99.90;;;;;;5035859;28;20244;-76
2021/05/14 11:11:14;;;;;;;8.97;6.40;;;17.30;99.90;;;;;;5019717;28;20191;-78
2021/05/14 11:13:51;;;;;;;7.73;5.90;;;17.40;99.90;;;;;;5036223;28;20317;-78
2021/05/14 11:16:42;;;;;;;8.33;5.63;;;17.60;99.90;;;;;;5036651;28;20216;-75
2021/05/14 11:19:27;;;;;;;7.10;5.27;;;17.80;99.90;;;;;;5051843;28;20277;-75
2021/05/14 11:21:59;;;;;;;7.53;5.10;;;17.90;99.90;;;;;;5019216;28;20206;-74
2021/05/14 11:24:29;;;;;;;7.57;4.60;;;18.00;99.90;;;;;;5053055;28;20208;-75
2021/05/14 11:27:07;;;;;;;8.67;5.10;;;18.00;99.90;;;;;;5052168;28;20178;-76
2021/05/14 11:29:38;;;;;;;6.13;4.70;;;18.00;99.90;;;;;;5037016;28;20162;-73
2021/05/14 11:32:21;;;;;;;6.90;4.60;;;18.00;99.90;;;;;;5035142;28;20220;-74
2021/05/14 11:34:58;;;;;;;6.83;4.80;;;18.20;99.90;;;;;;5052107;28;20196;-73
2021/05/14 11:37:28;;;;;;;7.03;4.93;;;18.40;99.90;;;;;;5035702;28;20211;-73
2021/05/14 11:39:53;;;;;;;7.20;5.30;;;18.50;99.90;;;;;;5035450;28;20181;-75
2021/05/14 11:42:25;;;;;;;6.93;5.07;;;18.30;99.90;;;;;;5051630;28;20174;-74
2021/05/14 11:45:03;;;;;;;6.93;5.10;;;17.90;99.90;;;;;;5035315;28;20186;-74
2021/05/14 11:47:29;;;;;;;6.97;5.10;;;17.70;99.90;;;;;;5019402;28;20204;-75
2021/05/14 11:49:55;;;;;;;6.27;4.73;;;17.50;99.90;;;;;;5035272;28;20175;-74
2021/05/14 11:52:38;;;;;;;7.60;5.30;;;17.40;99.90;;;;;;5035020;28;20174;-75
2021/05/14 11:55:06;;;;;;;7.67;5.80;;;17.30;99.90;;;;;;5051658;28;20248;-74
2021/05/14 11:57:32;;;;;;;7.50;5.70;;;17.20;99.90;;;;;;5051742;28;20523;-76
2021/05/14 11:59:58;;;;;;;8.00;5.60;;;17.00;99.90;;;;;;5051468;28;20188;-76
2021/05/14 12:02:34;;;;;;;9.77;6.07;;;16.90;99.90;;;;;;5051220;28;20273;-75
2021/05/14 12:04:59;;;;;;;6.87;5.30;;;16.90;99.90;;;;;;5053175;28;20265;-76
2021/05/14 12:07:25;;;;;;;7.07;5.60;;;16.80;99.90;;;;;;5051876;28;20265;-76
2021/05/14 12:10:00;;;;;;;10.03;5.80;;;16.90;99.90;;;;;;5035042;28;20208;-76
2021/05/14 12:12:26;;;;;;;6.93;5.27;;;17.00;99.90;;;;;;5031288;28;20198;-73
2021/05/14 12:15:10;;;;;;;8.37;5.53;;;17.10;99.90;;;;;;5033989;28;20712;-74
2021/05/14 12:17:36;;;;;;;9.33;6.10;;;17.20;99.90;;;;;;5024831;28;20261;-73
2021/05/14 12:20:38;;;;;;;8.13;5.90;;;17.40;99.90;;;;;;5034611;28;20170;-73
2021/05/14 12:23:05;;;;;;;8.40;6.07;;;17.20;99.90;;;;;;5030054;28;20268;-75
2021/05/14 12:25:57;;;;;;;9.43;6.70;;;17.00;99.90;;;;;;5049096;28;20170;-74
2021/05/14 12:28:46;;;;;;;8.83;6.40;;;16.80;99.90;;;;;;5021681;28;20359;-74
2021/05/14 12:31:13;;;;;;;8.77;5.97;;;16.80;99.90;;;;;;5050632;28;20170;-74
2021/05/14 12:33:57;;;;;;;6.63;5.03;;;16.80;99.90;;;;;;5050464;28;20284;-75
2021/05/14 12:36:32;;;;;;;6.70;4.53;;;16.70;99.90;;;;;;5049866;28;20162;-74
2021/05/14 12:39:15;;;;;;;7.53;5.13;;;16.70;99.90;;;;;;5034057;28;20181;-74
2021/05/14 12:41:52;;;;;;;5.97;4.43;;;16.70;99.90;;;;;;5050574;28;20239;-76
2021/05/14 12:44:24;;;;;;;8.07;4.73;;;16.80;99.90;;;;;;5050398;28;20217;-74
2021/05/14 12:46:59;;;;;;;8.27;4.90;;;17.10;99.90;;;;;;5046275;28;20179;-75
2021/05/14 12:49:25;;;;;;;7.50;4.87;;;17.30;99.90;;;;;;5040824;28;20766;-74
2021/05/14 12:52:07;;;;;;;7.00;4.63;;;17.30;99.90;;;;;;5051528;28;20529;-73
2021/05/14 12:54:34;;;;;;;6.80;4.40;;;17.50;99.90;;;;;;5047340;28;20584;-76